createdAt,value
2022-09-23T00:01:24.128Z,15.03
2022-09-23T00:04:07.150Z,16.30
2022-09-23T00:06:50.153Z,13.93
2022-09-23T00:09:33.479Z,16.27
2022-09-23T00:12:17.050Z,17.13
2022-09-23T00:15:00.071Z,13.87
2022-09-23T00:17:45.231Z,14.40
2022-09-23T00:20:28.461Z,14.73
2022-09-23T00:23:11.429Z,17.70
2022-09-23T00:25:57.758Z,14.47
2022-09-23T00:28:41.207Z,13.83
2022-09-23T00:31:27.408Z,14.27
2022-09-23T00:34:12.485Z,13.50
2022-09-23T00:36:55.968Z,13.97
2022-09-23T00:39:39.178Z,13.60
2022-09-23T00:42:23.797Z,15.83
2022-09-23T00:45:12.131Z,14.03
2022-09-23T00:47:58.102Z,14.60
2022-09-23T00:50:45.162Z,14.80
2022-09-23T00:53:29.055Z,13.77
2022-09-23T00:56:13.219Z,17.60
2022-09-23T00:58:56.332Z,14.07
2022-09-23T01:01:40.251Z,16.93
2022-09-23T01:04:24.663Z,16.33
2022-09-23T01:07:09.050Z,16.10
2022-09-23T01:09:52.288Z,21.30
2022-09-23T01:12:48.931Z,20.77
2022-09-23T01:15:40.634Z,17.40
2022-09-23T01:18:33.249Z,22.93
2022-09-23T01:21:29.460Z,20.30
2022-09-23T01:24:47.162Z,22.17
2022-09-23T01:27:59.110Z,17.20
2022-09-23T01:30:49.736Z,16.77
2022-09-23T01:33:39.586Z,16.30
2022-09-23T01:36:27.635Z,17.83
2022-09-23T01:39:18.466Z,17.53
2022-09-23T01:42:04.047Z,18.00
2022-09-23T01:44:52.603Z,17.30
2022-09-23T01:47:41.344Z,17.97
2022-09-23T01:50:47.681Z,17.47
2022-09-23T01:53:39.172Z,15.73
2022-09-23T01:56:26.976Z,16.63
2022-09-23T01:59:16.114Z,20.17
2022-09-23T02:02:05.735Z,14.73
2022-09-23T02:04:55.646Z,15.80
2022-09-23T02:07:42.858Z,14.37
2022-09-23T02:10:32.216Z,15.23
2022-09-23T02:13:19.380Z,15.23
2022-09-23T02:16:08.712Z,13.97
2022-09-23T02:18:56.961Z,14.63
2022-09-23T02:21:44.854Z,14.70
2022-09-23T02:24:31.270Z,16.17
2022-09-23T02:27:24.590Z,14.47
2022-09-23T02:30:12.300Z,14.40
2022-09-23T02:33:00.082Z,14.87
2022-09-23T02:35:50.338Z,15.10
2022-09-23T02:38:39.117Z,13.87
2022-09-23T02:41:29.341Z,14.90
2022-09-23T02:44:15.830Z,15.87
2022-09-23T02:46:58.902Z,14.67
2022-09-23T02:49:42.219Z,14.50
2022-09-23T02:52:25.773Z,16.47
2022-09-23T02:55:13.428Z,16.03
2022-09-23T02:57:56.474Z,16.67
2022-09-23T03:00:51.284Z,15.90
2022-09-23T03:03:43.063Z,14.37
2022-09-23T03:06:30.561Z,15.40
2022-09-23T03:09:21.446Z,14.57
2022-09-23T03:12:15.764Z,15.93
2022-09-23T03:15:06.037Z,15.17
2022-09-23T03:17:57.427Z,14.37
2022-09-23T03:20:46.380Z,17.43
2022-09-23T03:23:35.784Z,17.43
2022-09-23T03:26:23.478Z,17.33
2022-09-23T03:29:11.527Z,15.70
2022-09-23T03:31:56.157Z,15.80
2022-09-23T03:34:43.154Z,15.33
2022-09-23T03:37:31.372Z,16.90
2022-09-23T03:40:19.412Z,16.00
2022-09-23T03:43:04.579Z,15.90
2022-09-23T03:45:49.180Z,15.00
2022-09-23T03:48:32.266Z,14.10
2022-09-23T03:51:22.847Z,14.87
2022-09-23T03:54:06.247Z,14.73
2022-09-23T03:56:49.764Z,14.43
2022-09-23T03:59:32.949Z,17.80
2022-09-23T04:02:17.956Z,18.47
2022-09-23T04:05:01.123Z,16.90
2022-09-23T04:07:44.127Z,16.40
2022-09-23T04:10:27.091Z,15.87
2022-09-23T04:13:10.111Z,15.37
2022-09-23T04:15:53.101Z,17.43
2022-09-23T04:18:37.499Z,19.70
2022-09-23T04:21:20.622Z,20.40
2022-09-23T04:24:03.624Z,20.27
2022-09-23T04:26:46.667Z,19.67
2022-09-23T04:29:29.765Z,22.37
2022-09-23T04:32:12.739Z,22.33
2022-09-23T04:34:57.454Z,19.90
2022-09-23T04:37:40.475Z,20.87
2022-09-23T04:40:23.462Z,28.27
2022-09-23T04:43:09.485Z,20.93
2022-09-23T04:46:01.613Z,23.90
2022-09-23T04:48:45.090Z,26.10
2022-09-23T04:51:30.044Z,27.27
2022-09-23T04:54:14.607Z,27.57
2022-09-23T04:56:57.603Z,22.37
2022-09-23T04:59:41.413Z,26.90
2022-09-23T05:02:24.822Z,26.33
2022-09-23T05:05:08.619Z,35.77
2022-09-23T05:07:56.177Z,30.33
2022-09-23T05:10:39.193Z,23.53
2022-09-23T05:13:22.578Z,23.63
2022-09-23T05:16:09.296Z,20.87
2022-09-23T05:18:54.392Z,26.00
2022-09-23T05:21:37.852Z,20.17
2022-09-23T05:24:23.140Z,26.60
2022-09-23T05:27:07.891Z,18.40
2022-09-23T05:29:52.452Z,22.47
2022-09-23T05:32:35.512Z,25.03
2022-09-23T05:35:18.621Z,24.17
2022-09-23T05:38:01.630Z,23.43
2022-09-23T05:40:46.274Z,19.00
2022-09-23T05:43:30.085Z,22.40
2022-09-23T05:46:14.926Z,27.17
2022-09-23T05:49:02.487Z,31.60
2022-09-23T05:51:49.311Z,26.73
2022-09-23T05:54:32.359Z,27.87
2022-09-23T05:57:16.763Z,27.27
2022-09-23T05:59:59.805Z,31.03
2022-09-23T06:02:42.829Z,30.60
2022-09-23T06:05:28.823Z,19.67
2022-09-23T06:08:12.769Z,22.57
2022-09-23T06:10:56.265Z,17.80
2022-09-23T06:13:41.798Z,13.27
2022-09-23T06:16:24.925Z,11.13
2022-09-23T06:19:08.049Z,10.53
2022-09-23T06:21:51.152Z,10.50
2022-09-23T06:24:34.247Z,9.77
2022-09-23T06:27:17.214Z,9.13
2022-09-23T06:30:01.585Z,10.47
2022-09-23T06:32:49.898Z,10.00
2022-09-23T06:35:33.338Z,10.30
2022-09-23T06:38:16.304Z,9.33
2022-09-23T06:40:59.909Z,8.20
2022-09-23T06:43:42.913Z,9.40
2022-09-23T06:46:28.177Z,9.17
2022-09-23T06:49:13.417Z,8.87
2022-09-23T06:51:56.982Z,10.40
2022-09-23T06:54:40.000Z,17.87
2022-09-23T06:57:22.981Z,15.07
2022-09-23T07:00:07.513Z,9.10
2022-09-23T07:02:52.027Z,11.63
2022-09-23T07:05:35.153Z,9.03
2022-09-23T07:08:21.096Z,14.50
2022-09-23T07:11:06.317Z,8.37
2022-09-23T07:13:49.355Z,9.40
2022-09-23T07:16:33.091Z,9.40
2022-09-23T07:19:17.500Z,9.10
2022-09-23T07:22:00.513Z,9.43
2022-09-23T07:24:44.029Z,9.90
2022-09-23T07:27:28.631Z,8.47
2022-09-23T07:30:22.421Z,7.50
2022-09-23T07:33:27.172Z,7.93
2022-09-23T07:36:17.946Z,8.07
2022-09-23T07:39:03.670Z,9.07
2022-09-23T07:41:46.701Z,19.03
2022-09-23T07:44:32.026Z,8.60
2022-09-23T07:47:15.748Z,11.37
2022-09-23T07:49:58.775Z,15.20
2022-09-23T07:52:43.387Z,12.70
2022-09-23T07:55:26.580Z,11.17
2022-09-23T07:58:09.644Z,12.77
2022-09-23T08:00:53.845Z,10.60
2022-09-23T08:03:37.046Z,13.63
2022-09-23T08:06:20.444Z,8.73
2022-09-23T08:09:06.464Z,8.27
2022-09-23T08:11:50.735Z,7.77
2022-09-23T08:14:33.861Z,11.53
2022-09-23T08:17:17.061Z,9.00
2022-09-23T08:20:00.111Z,10.80
2022-09-23T08:22:43.100Z,9.77
2022-09-23T08:25:27.532Z,11.03
2022-09-23T08:28:10.520Z,11.63
2022-09-23T08:30:54.077Z,8.87
2022-09-23T08:33:37.090Z,8.43
2022-09-23T08:36:20.185Z,9.27
2022-09-23T08:39:03.573Z,8.73
2022-09-23T08:41:59.899Z,6.60
2022-09-23T08:44:50.760Z,7.90
2022-09-23T08:47:43.826Z,6.83
2022-09-23T08:50:37.203Z,7.07
2022-09-23T08:53:25.677Z,8.80
2022-09-23T08:56:14.428Z,8.87
2022-09-23T08:59:05.301Z,9.33
2022-09-23T09:01:51.953Z,6.97
2022-09-23T09:04:44.478Z,7.50
2022-09-23T09:07:36.543Z,7.50
2022-09-23T09:10:24.793Z,6.97
2022-09-23T09:13:20.955Z,7.97
2022-09-23T09:16:36.378Z,10.87
2022-09-23T09:19:47.347Z,7.43
2022-09-23T09:22:48.113Z,9.00
2022-09-23T09:25:47.079Z,7.03
2022-09-23T09:28:36.557Z,6.17
2022-09-23T09:31:30.584Z,8.37
2022-09-23T09:34:24.567Z,6.70
2022-09-23T09:37:13.769Z,7.37
2022-09-23T09:39:57.266Z,6.53
2022-09-23T09:42:42.769Z,9.67
2022-09-23T09:45:36.241Z,9.90
2022-09-23T09:48:32.480Z,6.80
2022-09-23T09:51:21.633Z,10.23
2022-09-23T09:54:23.105Z,10.07
2022-09-23T09:57:08.944Z,6.30
2022-09-23T09:59:52.103Z,7.70
2022-09-23T10:02:37.806Z,7.43
2022-09-23T10:05:28.582Z,6.07
2022-09-23T10:08:24.753Z,6.40
2022-09-23T10:11:15.332Z,5.03
2022-09-23T10:14:09.512Z,9.20
2022-09-23T10:17:05.325Z,4.83
2022-09-23T10:19:51.018Z,6.20
2022-09-23T10:22:39.297Z,6.77
2022-09-23T10:25:26.804Z,5.70
2022-09-23T10:28:34.011Z,9.60
2022-09-23T10:31:25.332Z,5.10
2022-09-23T10:34:25.077Z,5.60
2022-09-23T10:37:18.455Z,10.27
2022-09-23T10:40:32.320Z,8.03
2022-09-23T10:43:46.620Z,5.40
2022-09-23T10:46:41.671Z,6.70
2022-09-23T10:49:47.789Z,6.27
2022-09-23T10:52:43.542Z,11.40
2022-09-23T10:55:50.022Z,5.10
2022-09-23T10:58:50.717Z,7.30
2022-09-23T11:01:44.321Z,8.17
2022-09-23T11:04:48.412Z,6.70
2022-09-23T11:07:37.385Z,7.27
2022-09-23T11:10:55.878Z,7.70
2022-09-23T11:14:17.321Z,7.07
2022-09-23T11:17:16.216Z,5.50
2022-09-23T11:20:11.974Z,6.27
2022-09-23T11:23:23.947Z,8.17
2022-09-23T11:26:26.830Z,9.10
2022-09-23T11:29:23.376Z,9.17
2022-09-23T11:32:28.159Z,13.67
2022-09-23T11:35:20.581Z,8.57
2022-09-23T11:38:09.137Z,8.33
2022-09-23T11:40:58.649Z,12.10
2022-09-23T11:43:45.704Z,9.40
2022-09-23T11:46:38.483Z,8.40
2022-09-23T11:49:31.992Z,8.07
2022-09-23T11:52:19.788Z,8.13
2022-09-23T11:55:18.554Z,9.30
2022-09-23T11:58:22.973Z,16.10
2022-09-23T12:01:15.197Z,11.97
2022-09-23T12:04:18.082Z,9.73
2022-09-23T12:07:09.976Z,10.23
2022-09-23T12:09:59.865Z,12.37
2022-09-23T12:12:52.592Z,15.83
2022-09-23T12:15:50.753Z,9.27
2022-09-23T12:18:47.395Z,9.67
2022-09-23T12:21:51.574Z,8.20
2022-09-23T12:24:48.269Z,11.60
2022-09-23T12:27:38.588Z,11.03
2022-09-23T12:30:24.399Z,9.17
2022-09-23T12:33:17.414Z,10.47
2022-09-23T12:36:06.839Z,8.33
2022-09-23T12:38:53.328Z,10.17
2022-09-23T12:41:38.852Z,11.43
2022-09-23T12:44:32.680Z,7.47
2022-09-23T12:47:38.578Z,14.33
2022-09-23T12:50:54.220Z,11.67
2022-09-23T12:53:55.504Z,9.30
2022-09-23T12:57:02.785Z,12.43
2022-09-23T13:00:00.516Z,8.30
2022-09-23T13:03:08.104Z,7.97
2022-09-23T13:06:11.798Z,10.73
2022-09-23T13:08:56.396Z,9.20
2022-09-23T13:11:41.607Z,9.10
2022-09-23T13:14:27.682Z,8.07
2022-09-23T13:17:26.002Z,7.97
2022-09-23T13:20:36.946Z,9.07
2022-09-23T13:23:24.546Z,9.10
2022-09-23T13:26:13.873Z,10.57
2022-09-23T13:29:00.162Z,9.43
2022-09-23T13:31:44.134Z,13.97
2022-09-23T13:34:31.641Z,10.67
2022-09-23T13:37:22.625Z,8.40
2022-09-23T13:40:17.420Z,8.60
2022-09-23T13:43:04.624Z,8.40
2022-09-23T13:45:47.745Z,7.70
2022-09-23T13:48:30.939Z,8.43
2022-09-23T13:51:26.035Z,8.20
2022-09-23T13:54:31.130Z,9.67
2022-09-23T13:57:26.767Z,7.67
2022-09-23T14:00:21.081Z,8.70
2022-09-23T14:03:06.540Z,10.57
2022-09-23T14:05:50.268Z,9.63
2022-09-23T14:08:34.237Z,8.67
2022-09-23T14:11:18.468Z,8.77
2022-09-23T14:14:09.188Z,8.53
2022-09-23T14:16:55.160Z,7.80
2022-09-23T14:19:38.609Z,11.07
2022-09-23T14:22:26.458Z,8.40
2022-09-23T14:25:15.009Z,8.00
2022-09-23T14:28:00.484Z,8.60
2022-09-23T14:30:46.170Z,8.57
2022-09-23T14:33:34.099Z,8.10
2022-09-23T14:36:36.701Z,7.77
2022-09-23T14:39:19.911Z,8.20
2022-09-23T14:42:06.729Z,7.80
2022-09-23T14:44:51.235Z,8.83
2022-09-23T14:47:36.477Z,7.83
2022-09-23T14:50:39.946Z,8.77
2022-09-23T14:53:46.453Z,8.47
2022-09-23T14:56:42.719Z,9.03
2022-09-23T14:59:28.491Z,9.53
2022-09-23T15:02:32.766Z,7.13
2022-09-23T15:05:19.157Z,9.07
2022-09-23T15:08:04.482Z,7.87
2022-09-23T15:10:48.248Z,9.80
2022-09-23T15:13:33.389Z,9.03
2022-09-23T15:16:17.827Z,8.93
2022-09-23T15:19:02.204Z,10.93
2022-09-23T15:21:51.927Z,12.90
2022-09-23T15:24:45.394Z,8.70
2022-09-23T15:27:33.711Z,8.63
2022-09-23T15:30:18.650Z,8.30
2022-09-23T15:33:02.404Z,10.73
2022-09-23T15:35:50.152Z,12.03
2022-09-23T15:38:33.745Z,9.93
2022-09-23T15:41:20.521Z,10.67
2022-09-23T15:44:09.120Z,11.03
2022-09-23T15:46:54.034Z,11.03
2022-09-23T15:49:40.251Z,13.00
2022-09-23T15:52:23.319Z,13.03
2022-09-23T15:55:16.055Z,10.03
2022-09-23T15:58:01.957Z,9.50
2022-09-23T16:00:45.209Z,10.70
2022-09-23T16:03:29.458Z,9.13
2022-09-23T16:06:13.564Z,9.60
2022-09-23T16:09:04.019Z,10.33
2022-09-23T16:11:49.755Z,9.93
2022-09-23T16:14:34.173Z,10.37
2022-09-23T16:17:18.552Z,11.20
2022-09-23T16:20:02.192Z,9.90
2022-09-23T16:22:50.765Z,10.40
2022-09-23T16:25:35.975Z,10.00
2022-09-23T16:28:20.131Z,10.63
2022-09-23T16:31:05.024Z,9.67
2022-09-23T16:33:52.008Z,11.67
2022-09-23T16:36:37.371Z,11.77
2022-09-23T16:39:22.128Z,10.37
2022-09-23T16:42:05.366Z,12.70
2022-09-23T16:44:51.684Z,11.83
2022-09-23T16:47:36.251Z,11.13
2022-09-23T16:50:22.705Z,14.70
2022-09-23T16:53:06.250Z,11.47
2022-09-23T16:55:49.484Z,11.67
2022-09-23T16:58:32.481Z,10.20
2022-09-23T17:01:34.605Z,12.23
2022-09-23T17:04:20.187Z,15.80
2022-09-23T17:07:05.939Z,13.80
2022-09-23T17:09:51.018Z,11.87
2022-09-23T17:12:35.174Z,10.60
2022-09-23T17:15:18.462Z,12.10
2022-09-23T17:18:01.934Z,10.60
2022-09-23T17:20:46.344Z,11.97
2022-09-23T17:23:31.555Z,12.27
2022-09-23T17:26:15.196Z,12.00
2022-09-23T17:28:59.455Z,16.27
2022-09-23T17:31:42.532Z,13.10
2022-09-23T17:34:25.766Z,12.17
2022-09-23T17:37:10.151Z,15.93
2022-09-23T17:39:53.119Z,17.27
2022-09-23T17:42:41.363Z,14.40
2022-09-23T17:45:24.408Z,13.90
2022-09-23T17:48:07.514Z,16.70
2022-09-23T17:50:57.185Z,16.70
2022-09-23T17:53:44.167Z,21.70
2022-09-23T17:56:29.968Z,16.00
2022-09-23T17:59:13.759Z,16.93
2022-09-23T18:01:56.769Z,14.07
2022-09-23T18:04:39.799Z,13.20
2022-09-23T18:07:22.834Z,11.73
2022-09-23T18:10:09.050Z,15.33
2022-09-23T18:12:52.145Z,15.03
2022-09-23T18:15:36.784Z,12.23
2022-09-23T18:18:19.793Z,13.23
2022-09-23T18:21:03.013Z,16.90
2022-09-23T18:23:45.982Z,14.43
2022-09-23T18:26:30.708Z,15.73
2022-09-23T18:29:15.919Z,17.87
2022-09-23T18:31:59.536Z,15.00
2022-09-23T18:34:42.690Z,17.27
2022-09-23T18:37:25.982Z,16.47
2022-09-23T18:40:14.432Z,13.37
2022-09-23T18:42:59.119Z,12.57
2022-09-23T18:45:42.147Z,15.90
2022-09-23T18:48:42.459Z,15.77
2022-09-23T18:51:28.530Z,18.97
2022-09-23T18:54:11.541Z,16.20
2022-09-23T18:56:54.743Z,16.23
2022-09-23T18:59:40.145Z,16.63
2022-09-23T19:02:23.158Z,15.90
2022-09-23T19:05:06.850Z,14.87
2022-09-23T19:07:49.830Z,16.37
2022-09-23T19:10:32.816Z,15.70
2022-09-23T19:13:15.800Z,19.07
2022-09-23T19:16:04.702Z,18.70
2022-09-23T19:18:47.788Z,19.17
2022-09-23T19:21:31.242Z,24.27
2022-09-23T19:24:19.973Z,23.67
2022-09-23T19:27:03.398Z,17.60
2022-09-23T19:29:47.506Z,24.00
2022-09-23T19:32:33.410Z,17.77
2022-09-23T19:35:16.532Z,16.00
2022-09-23T19:37:59.548Z,18.03
2022-09-23T19:40:45.455Z,19.60
2022-09-23T19:43:30.775Z,15.50
2022-09-23T19:46:13.800Z,16.87
2022-09-23T19:48:58.631Z,15.47
2022-09-23T19:51:44.014Z,16.80
2022-09-23T19:54:27.678Z,43.17
2022-09-23T19:57:10.880Z,17.77
2022-09-23T19:59:54.574Z,18.83
2022-09-23T20:02:37.596Z,18.67
2022-09-23T20:05:22.331Z,12.97
2022-09-23T20:08:05.586Z,16.90
2022-09-23T20:10:49.872Z,12.30
2022-09-23T20:13:33.902Z,13.13
2022-09-23T20:16:18.766Z,15.77
2022-09-23T20:19:04.176Z,13.63
2022-09-23T20:22:09.036Z,19.60
2022-09-23T20:24:52.918Z,17.20
2022-09-23T20:27:35.006Z,14.27
2022-09-23T20:30:18.456Z,14.37
2022-09-23T20:33:01.518Z,16.40
2022-09-23T20:35:44.604Z,12.87
2022-09-23T20:38:29.183Z,13.13
2022-09-23T20:41:12.396Z,14.57
2022-09-23T20:43:56.013Z,25.67
2022-09-23T20:46:41.884Z,14.97
2022-09-23T20:49:27.016Z,14.57
2022-09-23T20:52:10.242Z,15.37
2022-09-23T20:54:54.629Z,17.83
2022-09-23T20:57:37.648Z,14.83
2022-09-23T21:00:20.860Z,17.80
2022-09-23T21:03:03.888Z,16.03
2022-09-23T21:05:48.042Z,13.63
2022-09-23T21:08:31.401Z,13.40
2022-09-23T21:11:17.952Z,13.03
2022-09-23T21:14:01.495Z,15.97
2022-09-23T21:16:44.805Z,16.50
2022-09-23T21:19:28.015Z,15.27
2022-09-23T21:22:12.421Z,12.57
2022-09-23T21:25:26.469Z,24.83
2022-09-23T21:28:01.890Z,20.23
2022-09-23T21:30:48.590Z,22.70
2022-09-23T21:33:36.436Z,23.40
2022-09-23T21:36:19.486Z,21.40
2022-09-23T21:39:03.126Z,23.53
2022-09-23T21:41:46.120Z,21.10
2022-09-23T21:44:30.645Z,27.03
2022-09-23T21:47:13.800Z,25.63
2022-09-23T21:49:56.793Z,25.10
2022-09-23T21:52:40.232Z,25.13
2022-09-23T21:55:23.286Z,17.60
2022-09-23T21:58:06.291Z,16.53
2022-09-23T22:00:50.794Z,17.43
2022-09-23T22:03:33.898Z,20.37
2022-09-23T22:06:21.523Z,14.67
2022-09-23T22:09:08.923Z,12.80
2022-09-23T22:12:09.848Z,12.90
2022-09-23T22:14:52.934Z,15.53
2022-09-23T22:17:37.281Z,13.50
2022-09-23T22:20:20.363Z,17.00
2022-09-23T22:23:03.418Z,12.80
2022-09-23T22:25:46.434Z,10.03
2022-09-23T22:28:53.199Z,11.27
2022-09-23T22:31:54.108Z,11.63
2022-09-23T22:34:49.375Z,12.90
2022-09-23T22:37:35.228Z,11.47
2022-09-23T22:40:18.558Z,12.10
2022-09-23T22:43:02.811Z,13.53
2022-09-23T22:45:50.804Z,11.27
2022-09-23T22:48:33.767Z,16.10
2022-09-23T22:51:18.206Z,12.13
2022-09-23T22:54:01.545Z,14.97
2022-09-23T22:56:44.535Z,16.03
2022-09-23T22:59:27.582Z,12.57
2022-09-23T23:02:10.603Z,11.70
2022-09-23T23:04:56.193Z,12.77
2022-09-23T23:07:40.647Z,16.67
2022-09-23T23:10:24.772Z,13.33
2022-09-23T23:13:07.742Z,18.73
2022-09-23T23:15:50.831Z,14.37
2022-09-23T23:18:35.554Z,14.37
2022-09-23T23:21:19.853Z,14.30
2022-09-23T23:24:05.729Z,15.80
2022-09-23T23:26:49.397Z,12.90
2022-09-23T23:29:32.416Z,14.20
2022-09-23T23:32:15.672Z,12.50
2022-09-23T23:34:58.671Z,11.43
2022-09-23T23:37:41.661Z,12.90
2022-09-23T23:40:27.989Z,10.53
2022-09-23T23:43:11.121Z,12.23
2022-09-23T23:45:54.082Z,11.77
2022-09-23T23:48:38.378Z,14.83
2022-09-23T23:51:21.799Z,11.00
2022-09-23T23:54:05.055Z,10.63
2022-09-23T23:56:49.520Z,10.83
2022-09-23T23:59:34.402Z,11.73
